createdAt,value
2018-11-13T00:00:28.529Z,127.27
2018-11-13T00:02:58.286Z,128.57
2018-11-13T00:05:27.242Z,70.67
2018-11-13T00:07:55.905Z,64.33
2018-11-13T00:10:24.677Z,66.93
2018-11-13T00:12:53.437Z,67.03
2018-11-13T00:15:22.874Z,64.40
2018-11-13T00:17:51.719Z,67.83
2018-11-13T00:20:20.569Z,58.90
2018-11-13T00:22:49.140Z,64.57
2018-11-13T00:25:18.755Z,60.07
2018-11-13T00:27:47.333Z,61.87
2018-11-13T00:30:20.533Z,58.30
2018-11-13T00:32:49.348Z,63.57
2018-11-13T00:35:19.010Z,57.30
2018-11-13T00:37:48.312Z,61.90
2018-11-13T00:40:18.535Z,63.80
2018-11-13T00:42:47.805Z,68.67
2018-11-13T00:45:16.551Z,71.93
2018-11-13T00:47:45.637Z,97.00
2018-11-13T00:50:18.116Z,95.27
2018-11-13T00:52:47.164Z,84.20
2018-11-13T00:55:16.058Z,85.20
2018-11-13T00:57:44.690Z,87.03
2018-11-13T01:00:16.142Z,81.27
2018-11-13T01:02:45.254Z,69.77
2018-11-13T01:05:15.957Z,57.83
2018-11-13T01:07:45.904Z,60.37
2018-11-13T01:10:15.870Z,63.77
2018-11-13T01:12:45.508Z,57.10
2018-11-13T01:15:17.609Z,58.07
2018-11-13T01:17:48.813Z,52.70
2018-11-13T01:20:18.056Z,48.20
2018-11-13T01:22:46.785Z,47.77
2018-11-13T01:25:16.234Z,49.67
2018-11-13T01:27:45.352Z,58.13
2018-11-13T01:30:14.737Z,46.87
2018-11-13T01:32:44.061Z,51.80
2018-11-13T01:35:14.013Z,55.33
2018-11-13T01:37:42.616Z,50.50
2018-11-13T01:40:13.225Z,48.57
2018-11-13T01:42:42.529Z,52.67
2018-11-13T01:45:12.275Z,54.53
2018-11-13T01:47:40.889Z,50.33
2018-11-13T01:50:10.113Z,50.07
2018-11-13T01:52:38.765Z,51.57
2018-11-13T01:55:09.003Z,51.57
2018-11-13T01:57:37.836Z,58.87
2018-11-13T02:00:14.450Z,49.20
2018-11-13T02:02:43.268Z,49.27
2018-11-13T02:05:11.803Z,49.57
2018-11-13T02:07:40.595Z,49.80
2018-11-13T02:10:09.527Z,46.23
2018-11-13T02:12:38.154Z,42.50
2018-11-13T02:15:07.293Z,48.70
2018-11-13T02:17:35.975Z,48.07
2018-11-13T02:20:05.662Z,46.23
2018-11-13T02:22:34.616Z,45.47
2018-11-13T02:25:03.372Z,51.20
2018-11-13T02:27:32.037Z,51.47
2018-11-13T02:30:00.598Z,53.17
2018-11-13T02:32:29.241Z,45.00
2018-11-13T02:34:57.877Z,48.97
2018-11-13T02:37:26.598Z,48.13
2018-11-13T02:39:55.161Z,43.43
2018-11-13T02:42:23.739Z,44.87
2018-11-13T02:44:52.390Z,44.30
2018-11-13T02:47:21.374Z,43.83
2018-11-13T02:49:51.312Z,49.67
2018-11-13T02:52:19.913Z,52.77
2018-11-13T02:54:48.728Z,47.87
2018-11-13T02:57:17.765Z,45.30
2018-11-13T02:59:46.361Z,49.13
2018-11-13T03:02:15.311Z,48.00
2018-11-13T03:04:43.923Z,47.23
2018-11-13T03:07:12.508Z,44.20
2018-11-13T03:09:41.070Z,45.47
2018-11-13T03:12:09.597Z,41.73
2018-11-13T03:14:38.194Z,60.97
2018-11-13T03:17:06.862Z,58.13
2018-11-13T03:19:35.466Z,45.40
2018-11-13T03:22:04.022Z,42.23
2018-11-13T03:24:32.669Z,41.97
2018-11-13T03:27:01.182Z,42.53
2018-11-13T03:29:30.343Z,43.40
2018-11-13T03:32:05.827Z,42.80
2018-11-13T03:34:34.409Z,51.27
2018-11-13T03:37:02.969Z,53.43
2018-11-13T03:39:31.674Z,45.13
2018-11-13T03:42:00.615Z,41.87
2018-11-13T03:44:29.609Z,43.00
2018-11-13T03:46:58.918Z,47.50
2018-11-13T03:49:27.500Z,42.13
2018-11-13T03:51:56.034Z,39.17
2018-11-13T03:54:24.769Z,40.97
2018-11-13T03:56:53.550Z,42.87
2018-11-13T03:59:22.178Z,43.33
2018-11-13T04:01:50.887Z,42.90
2018-11-13T04:04:19.515Z,44.77
2018-11-13T04:06:48.076Z,46.30
2018-11-13T04:09:16.674Z,44.33
2018-11-13T04:11:45.260Z,45.63
2018-11-13T04:14:13.845Z,52.33
2018-11-13T04:16:42.455Z,47.77
2018-11-13T04:19:11.039Z,47.60
2018-11-13T04:21:39.849Z,49.13
2018-11-13T04:24:08.433Z,52.47
2018-11-13T04:26:37.006Z,53.33
2018-11-13T04:29:06.005Z,51.97
2018-11-13T04:31:34.710Z,56.17
2018-11-13T04:34:03.291Z,58.70
2018-11-13T04:36:31.958Z,57.10
2018-11-13T04:39:00.533Z,56.20
2018-11-13T04:41:29.184Z,57.50
2018-11-13T04:43:57.909Z,60.80
2018-11-13T04:46:26.486Z,63.77
2018-11-13T04:48:59.127Z,59.30
2018-11-13T04:51:27.701Z,66.10
2018-11-13T04:53:56.432Z,67.53
2018-11-13T04:56:25.167Z,60.73
2018-11-13T04:58:53.872Z,66.77
2018-11-13T05:01:22.431Z,65.40
2018-11-13T05:03:51.001Z,68.23
2018-11-13T05:06:19.599Z,65.40
2018-11-13T05:08:48.149Z,66.80
2018-11-13T05:11:16.689Z,74.77
2018-11-13T05:13:45.347Z,75.40
2018-11-13T05:16:13.982Z,72.30
2018-11-13T05:18:42.565Z,72.87
2018-11-13T05:21:11.178Z,74.43
2018-11-13T05:23:39.822Z,71.50
2018-11-13T05:26:08.436Z,71.33
2018-11-13T05:28:37.096Z,72.03
2018-11-13T05:31:07.434Z,66.80
2018-11-13T05:33:35.997Z,68.10
2018-11-13T05:36:04.567Z,69.73
2018-11-13T05:38:33.128Z,71.20
2018-11-13T05:41:01.719Z,63.53
2018-11-13T05:43:30.324Z,58.50
2018-11-13T05:45:59.106Z,57.87
2018-11-13T05:48:27.666Z,57.93
2018-11-13T05:50:56.513Z,68.03
2018-11-13T05:53:25.434Z,68.33
2018-11-13T05:55:53.946Z,71.53
2018-11-13T05:58:23.142Z,86.63
2018-11-13T06:00:51.733Z,94.27
2018-11-13T06:03:20.291Z,76.80
2018-11-13T06:05:48.986Z,110.47
2018-11-13T06:08:19.287Z,98.43
2018-11-13T06:10:48.273Z,73.83
2018-11-13T06:13:16.833Z,64.33
2018-11-13T06:15:45.393Z,58.80
2018-11-13T06:18:14.041Z,97.47
2018-11-13T06:20:42.963Z,163.13
2018-11-13T06:23:11.732Z,386.73
2018-11-13T06:25:40.532Z,62.67
2018-11-13T06:28:09.492Z,68.97
2018-11-13T06:30:38.297Z,83.13
2018-11-13T06:33:07.219Z,73.70
2018-11-13T06:35:35.846Z,633.30
2018-11-13T06:38:04.486Z,707.83
2018-11-13T06:40:33.038Z,475.73
2018-11-13T06:43:01.638Z,800.90
2018-11-13T06:45:30.265Z,589.20
2018-11-13T06:47:58.994Z,276.87
2018-11-13T06:50:27.825Z,630.80
2018-11-13T06:52:56.545Z,417.23
2018-11-13T06:55:29.027Z,127.93
2018-11-13T06:57:58.000Z,540.63
2018-11-13T07:00:26.749Z,343.63
2018-11-13T07:02:55.590Z,552.90
2018-11-13T07:05:24.273Z,76.60
2018-11-13T07:07:52.901Z,48.33
2018-11-13T07:10:22.858Z,201.80
2018-11-13T07:12:52.061Z,77.70
2018-11-13T07:15:23.003Z,659.50
2018-11-13T07:17:52.924Z,67.03
2018-11-13T07:20:22.685Z,73.30
2018-11-13T07:22:51.409Z,329.00
2018-11-13T07:25:20.260Z,445.90
2018-11-13T07:27:49.112Z,152.23
2018-11-13T07:30:18.900Z,712.67
2018-11-13T07:32:49.533Z,87.27
2018-11-13T07:35:19.084Z,157.87
2018-11-13T07:37:49.459Z,560.83
2018-11-13T07:40:18.181Z,64.37
2018-11-13T07:42:46.762Z,69.27
2018-11-13T07:45:16.018Z,76.93
2018-11-13T07:47:45.856Z,59.07
2018-11-13T07:50:14.885Z,657.73
2018-11-13T07:52:43.441Z,476.63
2018-11-13T07:55:12.962Z,454.57
2018-11-13T07:57:41.550Z,59.13
2018-11-13T08:00:20.089Z,46.03
2018-11-13T08:02:50.929Z,424.97
2018-11-13T08:05:19.558Z,100.50
2018-11-13T08:07:48.217Z,324.43
2018-11-13T08:10:16.938Z,133.40
2018-11-13T08:12:45.628Z,75.90
2018-11-13T08:15:15.663Z,92.50
2018-11-13T08:17:44.290Z,35.27
2018-11-13T08:20:14.389Z,83.03
2018-11-13T08:22:43.602Z,63.33
2018-11-13T08:25:12.620Z,64.93
2018-11-13T08:27:41.925Z,55.43
2018-11-13T08:30:13.305Z,51.43
2018-11-13T08:32:42.228Z,85.43
2018-11-13T08:35:10.803Z,60.33
2018-11-13T08:37:39.625Z,63.40
2018-11-13T08:40:11.045Z,48.23
2018-11-13T08:42:39.645Z,62.10
2018-11-13T08:45:08.962Z,90.57
2018-11-13T08:47:37.623Z,48.37
2018-11-13T08:50:06.720Z,58.43
2018-11-13T08:52:35.454Z,52.43
2018-11-13T08:55:04.573Z,61.80
2018-11-13T08:57:33.541Z,38.57
2018-11-13T09:00:02.364Z,54.17
2018-11-13T09:02:30.880Z,47.60
2018-11-13T09:04:59.553Z,53.57
2018-11-13T09:07:28.315Z,44.63
2018-11-13T09:09:56.843Z,31.83
2018-11-13T09:12:25.521Z,58.53
2018-11-13T09:14:54.277Z,42.40
2018-11-13T09:17:22.822Z,34.30
2018-11-13T09:19:51.338Z,35.00
2018-11-13T09:22:19.931Z,44.30
2018-11-13T09:24:48.626Z,40.90
2018-11-13T09:27:17.178Z,44.43
2018-11-13T09:29:45.839Z,40.27
2018-11-13T09:32:14.538Z,54.13
2018-11-13T09:34:45.099Z,47.10
2018-11-13T09:37:13.885Z,46.37
2018-11-13T09:39:42.749Z,55.77
2018-11-13T09:42:11.391Z,31.90
2018-11-13T09:44:40.074Z,31.17
2018-11-13T09:47:08.823Z,33.93
2018-11-13T09:49:37.463Z,41.10
2018-11-13T09:52:06.553Z,35.53
2018-11-13T09:54:35.103Z,43.90
2018-11-13T09:57:03.631Z,32.10
2018-11-13T09:59:32.400Z,38.70
2018-11-13T10:02:01.559Z,31.60
2018-11-13T10:04:30.490Z,31.87
2018-11-13T10:06:59.277Z,32.43
2018-11-13T10:09:28.101Z,31.20
2018-11-13T10:11:56.653Z,28.73
2018-11-13T10:14:25.249Z,32.20
2018-11-13T10:16:53.794Z,29.47
2018-11-13T10:19:22.358Z,27.07
2018-11-13T10:21:51.010Z,24.33
2018-11-13T10:24:19.606Z,21.50
2018-11-13T10:26:48.388Z,23.93
2018-11-13T10:29:16.992Z,22.13
2018-11-13T10:31:45.533Z,20.63
2018-11-13T10:34:14.078Z,24.80
2018-11-13T10:36:42.959Z,23.33
2018-11-13T10:39:12.238Z,22.37
2018-11-13T10:41:40.836Z,24.70
2018-11-13T10:44:09.487Z,24.63
2018-11-13T10:46:39.124Z,23.20
2018-11-13T10:49:07.911Z,25.60
2018-11-13T10:51:36.685Z,23.77
2018-11-13T10:54:07.315Z,25.33
2018-11-13T10:56:35.948Z,24.13
2018-11-13T10:59:04.624Z,25.40
2018-11-13T11:01:38.470Z,26.10
2018-11-13T11:04:12.392Z,26.20
2018-11-13T11:06:40.975Z,22.77
2018-11-13T11:09:10.337Z,24.27
2018-11-13T11:11:40.901Z,21.73
2018-11-13T11:14:11.538Z,24.43
2018-11-13T11:16:40.067Z,22.70
2018-11-13T11:19:08.752Z,22.73
2018-11-13T11:21:37.609Z,23.17
2018-11-13T11:24:06.311Z,22.10
2018-11-13T11:26:35.462Z,21.37
2018-11-13T11:29:04.077Z,22.07
2018-11-13T11:31:32.643Z,21.10
2018-11-13T11:34:01.236Z,19.93
2018-11-13T11:36:29.810Z,20.50
2018-11-13T11:38:58.743Z,21.00
2018-11-13T11:41:27.327Z,23.13
2018-11-13T11:43:55.871Z,22.37
2018-11-13T11:46:24.450Z,23.83
2018-11-13T11:48:53.078Z,26.17
2018-11-13T11:51:21.644Z,22.43
2018-11-13T11:53:50.231Z,28.20
2018-11-13T11:56:18.971Z,25.03
2018-11-13T11:58:47.509Z,24.93
2018-11-13T12:01:16.103Z,26.53
2018-11-13T12:03:44.673Z,24.93
2018-11-13T12:06:13.377Z,25.57
2018-11-13T12:08:41.941Z,25.03
2018-11-13T12:11:10.520Z,24.63
2018-11-13T12:13:39.161Z,26.27
2018-11-13T12:16:07.733Z,28.00
2018-11-13T12:18:36.326Z,27.03
2018-11-13T12:21:04.989Z,29.33
2018-11-13T12:23:33.561Z,29.60
2018-11-13T12:26:02.152Z,28.33
2018-11-13T12:28:30.746Z,28.07
2018-11-13T12:30:59.628Z,27.03
2018-11-13T12:33:28.183Z,28.03
2018-11-13T12:35:56.764Z,28.93
2018-11-13T12:38:25.396Z,27.43
2018-11-13T12:40:54.131Z,28.87
2018-11-13T12:43:22.955Z,28.87
2018-11-13T12:45:51.482Z,30.97
2018-11-13T12:48:20.160Z,30.87
2018-11-13T12:50:53.978Z,30.57
2018-11-13T12:53:22.562Z,31.20
2018-11-13T12:55:51.180Z,34.60
2018-11-13T12:58:19.869Z,31.43
2018-11-13T13:00:48.485Z,32.47
2018-11-13T13:03:17.050Z,27.87
2018-11-13T13:05:45.637Z,29.60
2018-11-13T13:08:14.250Z,32.77
2018-11-13T13:10:42.766Z,30.50
2018-11-13T13:13:11.314Z,32.03
2018-11-13T13:15:40.024Z,28.93
2018-11-13T13:18:08.577Z,30.93
2018-11-13T13:20:37.150Z,30.77
2018-11-13T13:23:06.130Z,32.67
2018-11-13T13:25:34.683Z,28.77
2018-11-13T13:28:03.312Z,32.60
2018-11-13T13:30:31.933Z,38.07
2018-11-13T13:33:00.481Z,36.80
2018-11-13T13:35:39.317Z,33.67
2018-11-13T13:38:08.782Z,37.63
2018-11-13T13:40:38.301Z,34.27
2018-11-13T13:43:07.402Z,36.73
2018-11-13T13:45:36.024Z,38.17
2018-11-13T13:48:04.766Z,34.17
2018-11-13T13:50:33.354Z,37.30
2018-11-13T13:53:01.905Z,39.37
2018-11-13T13:55:30.542Z,41.77
2018-11-13T13:57:59.862Z,43.67
2018-11-13T14:00:30.098Z,40.33
2018-11-13T14:02:58.897Z,43.60
2018-11-13T14:05:27.675Z,45.07
2018-11-13T14:07:56.364Z,42.40
2018-11-13T14:10:24.905Z,41.27
2018-11-13T14:12:53.690Z,33.13
2018-11-13T14:15:22.254Z,29.87
2018-11-13T14:17:51.827Z,27.73
2018-11-13T14:20:21.239Z,24.20
2018-11-13T14:22:50.437Z,26.33
2018-11-13T14:25:19.414Z,24.37
2018-11-13T14:27:48.558Z,16.13
2018-11-13T14:30:20.794Z,15.87
2018-11-13T14:32:50.209Z,15.00
2018-11-13T14:35:19.177Z,16.70
2018-11-13T14:37:48.322Z,19.63
2018-11-13T14:40:21.561Z,15.37
2018-11-13T14:42:50.428Z,20.13
2018-11-13T14:45:20.446Z,19.70
2018-11-13T14:47:49.804Z,20.37
2018-11-13T14:50:19.621Z,21.23
2018-11-13T14:52:48.806Z,19.60
2018-11-13T14:55:19.959Z,19.60
2018-11-13T14:57:48.842Z,18.87
2018-11-13T15:00:20.095Z,21.90
2018-11-13T15:02:49.800Z,21.63
2018-11-13T15:05:19.630Z,20.67
2018-11-13T15:07:49.481Z,20.10
2018-11-13T15:10:20.920Z,21.47
2018-11-13T15:12:49.463Z,21.63
2018-11-13T15:15:18.138Z,20.50
2018-11-13T15:17:46.837Z,20.27
2018-11-13T15:20:16.450Z,22.27
2018-11-13T15:22:45.584Z,21.20
2018-11-13T15:25:15.350Z,25.60
2018-11-13T15:27:44.867Z,29.60
2018-11-13T15:30:19.419Z,26.90
2018-11-13T15:32:51.662Z,22.87
2018-11-13T15:35:20.284Z,21.30
2018-11-13T15:37:48.823Z,20.93
2018-11-13T16:06:10.175Z,32.63
2018-11-13T16:25:58.661Z,33.83
2018-11-13T16:28:27.457Z,33.20
2018-11-13T16:30:56.341Z,33.20
2018-11-13T16:33:24.955Z,32.87
2018-11-13T16:35:53.569Z,32.80
2018-11-13T16:38:22.660Z,34.40
2018-11-13T16:40:51.253Z,34.13
2018-11-13T16:43:19.931Z,35.47
2018-11-13T16:45:48.662Z,37.50
2018-11-13T16:48:17.292Z,32.70
2018-11-13T16:50:46.198Z,36.60
2018-11-13T16:53:14.822Z,36.30
2018-11-13T16:55:48.808Z,35.87
2018-11-13T16:58:17.569Z,33.87
2018-11-13T17:00:46.650Z,36.13
2018-11-13T17:03:15.291Z,37.83
2018-11-13T17:05:43.879Z,37.00
2018-11-13T17:08:12.606Z,38.47
2018-11-13T17:10:42.395Z,34.57
2018-11-13T17:13:11.166Z,35.13
2018-11-13T17:15:39.858Z,36.43
2018-11-13T17:18:08.569Z,39.53
2018-11-13T17:20:37.148Z,35.40
2018-11-13T17:23:06.093Z,38.80
2018-11-13T17:25:36.075Z,34.50
2018-11-13T17:28:04.758Z,30.53
2018-11-13T17:30:34.518Z,30.37
2018-11-13T17:33:04.717Z,29.13
2018-11-13T17:35:33.630Z,27.23
2018-11-13T17:38:02.710Z,25.23
2018-11-13T17:40:33.042Z,24.93
2018-11-13T17:43:02.967Z,23.47
2018-11-13T17:45:32.830Z,21.73
2018-11-13T17:48:01.419Z,21.33
2018-11-13T17:50:33.088Z,21.40
2018-11-13T17:53:01.779Z,21.93
2018-11-13T17:55:30.403Z,22.67
2018-11-13T17:58:00.423Z,22.90
2018-11-13T18:00:32.377Z,25.23
2018-11-13T18:03:01.643Z,23.80
2018-11-13T18:05:30.681Z,26.20
2018-11-13T18:08:00.954Z,21.67
2018-11-13T18:10:30.381Z,23.13
2018-11-13T18:12:58.977Z,20.57
2018-11-13T18:15:28.570Z,25.50
2018-11-13T18:17:57.186Z,24.00
2018-11-13T18:20:27.926Z,25.50
2018-11-13T18:22:56.522Z,26.17
2018-11-13T18:25:25.414Z,28.93
2018-11-13T18:27:55.537Z,24.20
2018-11-13T18:30:25.649Z,26.30
2018-11-13T18:32:54.506Z,26.77
2018-11-13T18:35:24.398Z,23.67
2018-11-13T18:37:54.154Z,24.43
2018-11-13T18:40:23.403Z,25.27
2018-11-13T18:42:52.725Z,27.80
2018-11-13T18:45:24.951Z,26.23
2018-11-13T18:47:53.872Z,27.57
2018-11-13T18:50:27.081Z,25.47
2018-11-13T18:52:55.948Z,26.73
2018-11-13T18:55:24.844Z,26.43
2018-11-13T18:57:53.595Z,28.50
2018-11-13T19:00:27.270Z,26.30
2018-11-13T19:02:56.542Z,28.50
2018-11-13T19:05:26.425Z,27.83
2018-11-13T19:07:55.073Z,28.07
2018-11-13T19:10:33.198Z,26.77
2018-11-13T19:13:03.415Z,27.03
2018-11-13T19:15:34.193Z,26.97
2018-11-13T19:18:03.484Z,30.17
2018-11-13T19:20:33.236Z,26.73
2018-11-13T19:23:02.633Z,28.53
2018-11-13T19:25:33.662Z,28.97
2018-11-13T19:28:03.733Z,24.03
2018-11-13T19:30:32.995Z,24.90
2018-11-13T19:33:02.860Z,25.80
2018-11-13T19:35:33.546Z,25.23
2018-11-13T19:38:03.886Z,26.80
2018-11-13T19:40:35.111Z,26.77
2018-11-13T19:43:07.315Z,24.67
2018-11-13T19:45:37.912Z,23.03
2018-11-13T19:48:08.406Z,23.80
2018-11-13T19:50:38.902Z,23.60
2018-11-13T19:53:09.174Z,21.77
2018-11-13T19:55:39.799Z,25.03
2018-11-13T19:58:10.217Z,21.73
2018-11-13T20:00:40.889Z,23.90
2018-11-13T20:03:12.442Z,22.53
2018-11-13T20:05:42.322Z,25.13
2018-11-13T20:08:12.382Z,25.90
2018-11-13T20:10:42.584Z,23.17
2018-11-13T20:13:13.040Z,20.40
2018-11-13T20:15:42.812Z,21.20
2018-11-13T20:18:12.374Z,17.53
2018-11-13T20:20:42.141Z,17.53
2018-11-13T20:23:12.031Z,17.97
2018-11-13T20:25:41.551Z,20.67
2018-11-13T20:28:10.905Z,20.53
2018-11-13T20:30:41.188Z,24.23
2018-11-13T20:33:10.662Z,18.77
2018-11-13T20:35:39.692Z,22.80
2018-11-13T20:38:08.672Z,18.60
2018-11-13T20:40:37.995Z,19.60
2018-11-13T20:43:08.809Z,20.57
2018-11-13T20:45:37.493Z,21.40
2018-11-13T20:48:06.532Z,20.63
2018-11-13T20:50:35.561Z,18.67
2018-11-13T20:53:04.157Z,19.83
2018-11-13T20:55:32.726Z,19.97
2018-11-13T20:58:01.385Z,21.73
2018-11-13T21:00:31.239Z,19.97
2018-11-13T21:03:00.059Z,22.37
2018-11-13T21:05:28.684Z,20.83
2018-11-13T21:07:57.333Z,22.27
2018-11-13T21:10:31.778Z,19.73
2018-11-13T21:13:01.878Z,20.07
2018-11-13T21:15:30.453Z,24.07
2018-11-13T21:17:59.050Z,18.47
2018-11-13T21:20:27.771Z,18.50
2018-11-13T21:22:56.596Z,19.33
2018-11-13T21:25:26.290Z,18.23
2018-11-13T21:27:57.318Z,19.73
2018-11-13T21:30:25.932Z,22.23
2018-11-13T21:32:54.890Z,20.70
2018-11-13T21:35:23.448Z,21.20
2018-11-13T21:37:55.282Z,20.43
2018-11-13T21:40:25.046Z,20.37
2018-11-13T21:42:54.286Z,20.43
2018-11-13T21:45:23.909Z,16.60
2018-11-13T21:47:52.533Z,16.17
2018-11-13T21:50:22.461Z,14.73
2018-11-13T21:52:51.030Z,13.13
2018-11-13T21:55:20.681Z,11.73
2018-11-13T21:57:49.734Z,11.20
2018-11-13T22:00:20.632Z,11.60
2018-11-13T22:02:53.233Z,10.47
2018-11-13T22:05:22.593Z,13.20
2018-11-13T22:07:51.129Z,8.67
2018-11-13T22:10:19.653Z,10.30
2018-11-13T22:12:48.254Z,8.97
2018-11-13T22:15:19.116Z,8.67
2018-11-13T22:17:47.657Z,8.70
2018-11-13T22:20:17.210Z,8.27
2018-11-13T22:22:45.931Z,7.43
2018-11-13T22:25:16.724Z,7.87
2018-11-13T22:27:46.641Z,6.57
2018-11-13T22:30:17.511Z,7.53
2018-11-13T22:32:46.590Z,7.63
2018-11-13T22:35:15.722Z,5.80
2018-11-13T22:37:44.400Z,7.83
2018-11-13T22:40:15.110Z,7.50
2018-11-13T22:42:43.733Z,7.03
2018-11-13T22:45:14.359Z,7.77
2018-11-13T22:47:43.221Z,8.10
2018-11-13T22:50:15.773Z,7.97
2018-11-13T22:52:44.793Z,9.17
2018-11-13T22:55:14.307Z,6.23
2018-11-13T22:57:43.923Z,6.03
2018-11-13T23:00:18.314Z,5.97
2018-11-13T23:02:54.208Z,7.23
2018-11-13T23:05:22.754Z,8.70
2018-11-13T23:07:51.265Z,6.83
2018-11-13T23:10:19.854Z,8.03
2018-11-13T23:12:48.447Z,7.60
2018-11-13T23:15:19.364Z,8.93
2018-11-13T23:17:47.978Z,9.17
2018-11-13T23:20:17.914Z,7.30
2018-11-13T23:22:46.438Z,10.40
2018-11-13T23:25:16.144Z,7.47
2018-11-13T23:27:45.652Z,6.90
2018-11-13T23:30:17.667Z,5.97
2018-11-13T23:32:46.625Z,6.67
2018-11-13T23:35:15.712Z,7.73
2018-11-13T23:37:45.347Z,4.80
2018-11-13T23:40:15.325Z,6.50
2018-11-13T23:42:48.747Z,9.20
2018-11-13T23:45:18.266Z,8.03
2018-11-13T23:47:47.213Z,6.73
2018-11-13T23:50:15.850Z,6.63
2018-11-13T23:52:45.011Z,6.73
2018-11-13T23:55:14.227Z,4.47
2018-11-13T23:57:43.336Z,4.27
